AVA8599 SKBO-SKPS
Flight info
| Callsign | AVA8599 |
|---|---|
| Flight time | 0h 47m |
| Altitude | 23000 |
| Route | VAPOM4R OREGA Z009 PPN/N0409F220 W48 MER |
| Aircraft | A320/M-SDE3FGHIRWY/LB1 |
Departure
| Time | 2026-04-19 03:08 |
|---|---|
| Airport | El Dorado International Airport (SKBO) |
Arrival
| Time | 2026-04-19 03:55 |
|---|---|
| Airport | Antonio Nariño Airport (SKPS) |
| Time | Latitude | Longitude | Altitude | Speed | Heading |
|---|---|---|---|---|---|
| 2026-04-19 01:51 | 4.69721 | -74.14444 | 8373 ft | 0 kts | 36° |
| 2026-04-19 02:46 | 4.69710 | -74.14452 | 8372 ft | 3 kts | 32° |
| 2026-04-19 02:46 | 4.69693 | -74.14462 | 8372 ft | 3 kts | 19° |
| 2026-04-19 02:46 | 4.69674 | -74.14466 | 8374 ft | 3 kts | 352° |
| 2026-04-19 02:46 | 4.69660 | -74.14461 | 8374 ft | 2 kts | 309° |
| 2026-04-19 02:47 | 4.69658 | -74.14459 | 8374 ft | 0 kts | 307° |
| 2026-04-19 02:54 | 4.69682 | -74.14491 | 8374 ft | 12 kts | 308° |
| 2026-04-19 02:54 | 4.69751 | -74.14580 | 8373 ft | 18 kts | 307° |
| 2026-04-19 02:54 | 4.69828 | -74.14682 | 8374 ft | 16 kts | 307° |
| 2026-04-19 02:54 | 4.69847 | -74.14751 | 8372 ft | 10 kts | 220° |
| 2026-04-19 02:55 | 4.69789 | -74.14792 | 8372 ft | 10 kts | 217° |
| 2026-04-19 02:55 | 4.69722 | -74.14799 | 8373 ft | 12 kts | 136° |
| 2026-04-19 02:55 | 4.69664 | -74.14720 | 8373 ft | 16 kts | 127° |
| 2026-04-19 02:55 | 4.69589 | -74.14622 | 8373 ft | 19 kts | 127° |
| 2026-04-19 02:56 | 4.69501 | -74.14503 | 8373 ft | 23 kts | 128° |
| 2026-04-19 02:56 | 4.69399 | -74.14369 | 8373 ft | 26 kts | 127° |
| 2026-04-19 02:56 | 4.69285 | -74.14221 | 8373 ft | 28 kts | 127° |
| 2026-04-19 02:56 | 4.69189 | -74.14095 | 8373 ft | 16 kts | 127° |
| 2026-04-19 02:57 | 4.69164 | -74.14083 | 8371 ft | 0 kts | 179° |
| 2026-04-19 02:58 | 4.69145 | -74.14084 | 8372 ft | 8 kts | 185° |
| 2026-04-19 02:58 | 4.69128 | -74.14097 | 8372 ft | 0 kts | 223° |
| 2026-04-19 02:59 | 4.69117 | -74.14105 | 8374 ft | 8 kts | 218° |
| 2026-04-19 02:59 | 4.69095 | -74.14122 | 8374 ft | 0 kts | 217° |
| 2026-04-19 03:02 | 4.69076 | -74.14137 | 8370 ft | 12 kts | 217° |
| 2026-04-19 03:02 | 4.69016 | -74.14204 | 8372 ft | 13 kts | 257° |
| 2026-04-19 03:03 | 4.69042 | -74.14257 | 8374 ft | 0 kts | 308° |
| 2026-04-19 03:07 | 4.69064 | -74.14286 | 8387 ft | 23 kts | 306° |
| 2026-04-19 03:07 | 4.69321 | -74.14626 | 8371 ft | 96 kts | 307° |
| 2026-04-19 03:07 | 4.69848 | -74.15320 | 8373 ft | 152 kts | 307° |
| 2026-04-19 03:07 | 4.70581 | -74.16282 | 8499 ft | 187 kts | 308° |
| 2026-04-19 03:08 | 4.71359 | -74.17307 | 9325 ft | 183 kts | 308° |
| 2026-04-19 03:08 | 4.72130 | -74.18329 | 10002 ft | 186 kts | 308° |
| 2026-04-19 03:08 | 4.72944 | -74.19424 | 10226 ft | 206 kts | 304° |
| 2026-04-19 03:08 | 4.73573 | -74.20806 | 10372 ft | 231 kts | 289° |
| 2026-04-19 03:09 | 4.74045 | -74.22439 | 10602 ft | 256 kts | 285° |
| 2026-04-19 03:09 | 4.74496 | -74.24247 | 10886 ft | 280 kts | 285° |
| 2026-04-19 03:09 | 4.74804 | -74.26257 | 11142 ft | 305 kts | 268° |
| 2026-04-19 03:09 | 4.74438 | -74.28445 | 11369 ft | 330 kts | 259° |
| 2026-04-19 03:10 | 4.73948 | -74.30764 | 11702 ft | 347 kts | 259° |
| 2026-04-19 03:10 | 4.73450 | -74.33060 | 12197 ft | 325 kts | 259° |
| 2026-04-19 03:10 | 4.72986 | -74.35223 | 13310 ft | 312 kts | 259° |
| 2026-04-19 03:10 | 4.72548 | -74.37313 | 14215 ft | 310 kts | 259° |
| 2026-04-19 03:11 | 4.72113 | -74.39431 | 14936 ft | 311 kts | 259° |
| 2026-04-19 03:11 | 4.71680 | -74.41566 | 15600 ft | 314 kts | 259° |
| 2026-04-19 03:11 | 4.71029 | -74.43661 | 16239 ft | 319 kts | 241° |
| 2026-04-19 03:11 | 4.69606 | -74.45389 | 16854 ft | 324 kts | 225° |
| 2026-04-19 03:12 | 4.67877 | -74.46863 | 17510 ft | 328 kts | 219° |
| 2026-04-19 03:12 | 4.66018 | -74.48212 | 18153 ft | 331 kts | 217° |
| 2026-04-19 03:12 | 4.64108 | -74.49528 | 18759 ft | 334 kts | 216° |
| 2026-04-19 03:12 | 4.62192 | -74.50860 | 19254 ft | 337 kts | 217° |
| 2026-04-19 03:13 | 4.60280 | -74.52231 | 19805 ft | 339 kts | 218° |
| 2026-04-19 03:13 | 4.58378 | -74.53639 | 20351 ft | 341 kts | 218° |
| 2026-04-19 03:13 | 4.56478 | -74.55077 | 20887 ft | 344 kts | 219° |
| 2026-04-19 03:13 | 4.54571 | -74.56540 | 21401 ft | 346 kts | 219° |
| 2026-04-19 03:14 | 4.52654 | -74.58017 | 21930 ft | 349 kts | 219° |
| 2026-04-19 03:14 | 4.50725 | -74.59502 | 22458 ft | 351 kts | 219° |
| 2026-04-19 03:14 | 4.48780 | -74.60997 | 22983 ft | 354 kts | 219° |
| 2026-04-19 03:14 | 4.46818 | -74.62501 | 23462 ft | 356 kts | 219° |
| 2026-04-19 03:15 | 4.44842 | -74.64017 | 23936 ft | 359 kts | 218° |
| 2026-04-19 03:15 | 4.42854 | -74.65539 | 24335 ft | 361 kts | 218° |
| 2026-04-19 03:15 | 4.40903 | -74.67124 | 24742 ft | 362 kts | 224° |
| 2026-04-19 03:15 | 4.39196 | -74.69002 | 25041 ft | 368 kts | 233° |
| 2026-04-19 03:16 | 4.37795 | -74.71201 | 25157 ft | 380 kts | 243° |
| 2026-04-19 03:16 | 4.36578 | -74.73589 | 25275 ft | 391 kts | 243° |
| 2026-04-19 03:16 | 4.35339 | -74.76014 | 25387 ft | 401 kts | 243° |
| 2026-04-19 03:16 | 4.34051 | -74.78527 | 25494 ft | 411 kts | 243° |
| 2026-04-19 03:17 | 4.32722 | -74.81111 | 25609 ft | 421 kts | 243° |
| 2026-04-19 03:17 | 4.31368 | -74.83735 | 25770 ft | 428 kts | 243° |
| 2026-04-19 03:17 | 4.29992 | -74.86399 | 26032 ft | 431 kts | 243° |
| 2026-04-19 03:17 | 4.28609 | -74.89077 | 26351 ft | 433 kts | 243° |
| 2026-04-19 03:18 | 4.27221 | -74.91769 | 26683 ft | 436 kts | 243° |
| 2026-04-19 03:18 | 4.25828 | -74.94481 | 26982 ft | 438 kts | 243° |
| 2026-04-19 03:18 | 4.24907 | -74.96278 | 27207 ft | 439 kts | 242° |
| 2026-04-19 03:18 | 4.23502 | -74.99014 | 27546 ft | 441 kts | 243° |
| 2026-04-19 03:19 | 4.22090 | -75.01752 | 27833 ft | 443 kts | 242° |
| 2026-04-19 03:19 | 4.20068 | -75.05319 | 28278 ft | 445 kts | 234° |
| 2026-04-19 03:19 | 4.18840 | -75.06969 | 28480 ft | 447 kts | 233° |
| 2026-04-19 03:19 | 4.16967 | -75.09466 | 28783 ft | 448 kts | 233° |
| 2026-04-19 03:20 | 4.15090 | -75.11968 | 29075 ft | 450 kts | 233° |
| 2026-04-19 03:20 | 4.13207 | -75.14479 | 29361 ft | 452 kts | 233° |
| 2026-04-19 03:20 | 4.11319 | -75.17002 | 29623 ft | 454 kts | 233° |
| 2026-04-19 03:20 | 4.09424 | -75.19539 | 29910 ft | 456 kts | 233° |
| 2026-04-19 03:21 | 4.07519 | -75.22089 | 30192 ft | 457 kts | 233° |
| 2026-04-19 03:21 | 4.05607 | -75.24642 | 30415 ft | 459 kts | 233° |
| 2026-04-19 03:21 | 4.03682 | -75.27209 | 30642 ft | 461 kts | 233° |
| 2026-04-19 03:21 | 4.01754 | -75.29776 | 30951 ft | 461 kts | 233° |
| 2026-04-19 03:22 | 3.99835 | -75.32336 | 31070 ft | 459 kts | 233° |
| 2026-04-19 03:22 | 3.96057 | -75.37376 | 31103 ft | 448 kts | 233° |
| 2026-04-19 03:23 | 3.92334 | -75.42349 | 31100 ft | 446 kts | 233° |
| 2026-04-19 03:23 | 3.88612 | -75.47325 | 31101 ft | 446 kts | 232° |
| 2026-04-19 03:24 | 3.84278 | -75.51716 | 31142 ft | 445 kts | 218° |
| 2026-04-19 03:24 | 3.79401 | -75.55541 | 31108 ft | 445 kts | 218° |
| 2026-04-19 03:25 | 3.74533 | -75.59377 | 31105 ft | 445 kts | 218° |
| 2026-04-19 03:25 | 3.69670 | -75.63213 | 31073 ft | 444 kts | 218° |
| 2026-04-19 03:26 | 3.64809 | -75.67041 | 31098 ft | 445 kts | 218° |
| 2026-04-19 03:26 | 3.59942 | -75.70871 | 31101 ft | 445 kts | 218° |
| 2026-04-19 03:27 | 3.55070 | -75.74710 | 31106 ft | 446 kts | 218° |
| 2026-04-19 03:27 | 3.50202 | -75.78555 | 31136 ft | 446 kts | 218° |
| 2026-04-19 03:28 | 3.45328 | -75.82397 | 31142 ft | 446 kts | 218° |
| 2026-04-19 03:28 | 3.40487 | -75.86212 | 31143 ft | 446 kts | 218° |
| 2026-04-19 03:29 | 3.35601 | -75.90061 | 31125 ft | 446 kts | 218° |
| 2026-04-19 03:29 | 3.30725 | -75.93894 | 31126 ft | 446 kts | 218° |
| 2026-04-19 03:30 | 3.25838 | -75.97733 | 31130 ft | 446 kts | 218° |
| 2026-04-19 03:30 | 3.20964 | -76.01579 | 31123 ft | 446 kts | 218° |
| 2026-04-19 03:31 | 3.16089 | -76.05425 | 31126 ft | 446 kts | 218° |
| 2026-04-19 03:31 | 3.11213 | -76.09261 | 31103 ft | 446 kts | 218° |
| 2026-04-19 03:32 | 3.06329 | -76.13093 | 31110 ft | 446 kts | 218° |
| 2026-04-19 03:32 | 3.01444 | -76.16933 | 31110 ft | 446 kts | 218° |
| 2026-04-19 03:33 | 2.96599 | -76.20741 | 31106 ft | 446 kts | 218° |
| 2026-04-19 03:33 | 2.91690 | -76.24542 | 31106 ft | 445 kts | 218° |
| 2026-04-19 03:34 | 2.86782 | -76.28324 | 31106 ft | 445 kts | 218° |
| 2026-04-19 03:34 | 2.81872 | -76.32113 | 31107 ft | 445 kts | 218° |
| 2026-04-19 03:35 | 2.76980 | -76.35896 | 31117 ft | 445 kts | 218° |
| 2026-04-19 03:35 | 2.72088 | -76.39685 | 31109 ft | 445 kts | 218° |
| 2026-04-19 03:36 | 2.67192 | -76.43476 | 31123 ft | 444 kts | 218° |
| 2026-04-19 03:36 | 2.62309 | -76.47274 | 31148 ft | 444 kts | 218° |
| 2026-04-19 03:37 | 2.57528 | -76.51142 | 31165 ft | 444 kts | 219° |
| 2026-04-19 03:37 | 2.52741 | -76.55055 | 31174 ft | 445 kts | 219° |
| 2026-04-19 03:38 | 2.47903 | -76.58981 | 30644 ft | 454 kts | 219° |
| 2026-04-19 03:38 | 2.45428 | -76.60980 | 29543 ft | 459 kts | 219° |
| 2026-04-19 03:38 | 2.42954 | -76.62976 | 28875 ft | 453 kts | 219° |
| 2026-04-19 03:38 | 2.40510 | -76.64959 | 28138 ft | 449 kts | 219° |
| 2026-04-19 03:39 | 2.38097 | -76.66921 | 27418 ft | 446 kts | 219° |
| 2026-04-19 03:39 | 2.35699 | -76.68876 | 26709 ft | 443 kts | 220° |
| 2026-04-19 03:39 | 2.33324 | -76.70813 | 26009 ft | 440 kts | 220° |
| 2026-04-19 03:39 | 2.30959 | -76.72742 | 25318 ft | 437 kts | 220° |
| 2026-04-19 03:40 | 2.28604 | -76.74663 | 24620 ft | 435 kts | 220° |
| 2026-04-19 03:40 | 2.26262 | -76.76574 | 23939 ft | 433 kts | 220° |
| 2026-04-19 03:40 | 2.23961 | -76.78450 | 23206 ft | 432 kts | 220° |
| 2026-04-19 03:40 | 2.21648 | -76.80332 | 22567 ft | 426 kts | 221° |
| 2026-04-19 03:41 | 2.19364 | -76.82193 | 21956 ft | 421 kts | 220° |
| 2026-04-19 03:41 | 2.17109 | -76.84029 | 21382 ft | 415 kts | 221° |
| 2026-04-19 03:41 | 2.14880 | -76.85844 | 20844 ft | 410 kts | 221° |
| 2026-04-19 03:41 | 2.12684 | -76.87631 | 20309 ft | 405 kts | 220° |
| 2026-04-19 03:42 | 2.10505 | -76.89402 | 19794 ft | 400 kts | 220° |
| 2026-04-19 03:42 | 2.08354 | -76.91151 | 19281 ft | 397 kts | 220° |
| 2026-04-19 03:42 | 2.06220 | -76.92888 | 18755 ft | 394 kts | 220° |
| 2026-04-19 03:42 | 2.04100 | -76.94616 | 18195 ft | 393 kts | 220° |
| 2026-04-19 03:43 | 2.02010 | -76.96318 | 17624 ft | 390 kts | 220° |
| 2026-04-19 03:43 | 1.99912 | -76.98026 | 17082 ft | 387 kts | 220° |
| 2026-04-19 03:43 | 1.97826 | -76.99721 | 16533 ft | 385 kts | 221° |
| 2026-04-19 03:43 | 1.95759 | -77.01402 | 15988 ft | 383 kts | 220° |
| 2026-04-19 03:44 | 1.93693 | -77.03083 | 15418 ft | 381 kts | 221° |
| 2026-04-19 03:44 | 1.91644 | -77.04750 | 15047 ft | 375 kts | 221° |
| 2026-04-19 03:44 | 1.89654 | -77.06366 | 14928 ft | 362 kts | 221° |
| 2026-04-19 03:44 | 1.87736 | -77.07926 | 14811 ft | 348 kts | 221° |
| 2026-04-19 03:45 | 1.85890 | -77.09430 | 14683 ft | 337 kts | 222° |
| 2026-04-19 03:45 | 1.84094 | -77.10890 | 14568 ft | 327 kts | 221° |
| 2026-04-19 03:45 | 1.82375 | -77.12285 | 14448 ft | 318 kts | 221° |
| 2026-04-19 03:45 | 1.80685 | -77.13657 | 14341 ft | 309 kts | 222° |
| 2026-04-19 03:46 | 1.79029 | -77.14980 | 14219 ft | 300 kts | 218° |
| 2026-04-19 03:46 | 1.77239 | -77.16019 | 14013 ft | 295 kts | 211° |
| 2026-04-19 03:46 | 1.75425 | -77.16991 | 13620 ft | 295 kts | 211° |
| 2026-04-19 03:46 | 1.73623 | -77.17951 | 13315 ft | 291 kts | 211° |
| 2026-04-19 03:47 | 1.71847 | -77.18896 | 13045 ft | 288 kts | 211° |
| 2026-04-19 03:47 | 1.70085 | -77.19839 | 12781 ft | 286 kts | 211° |
| 2026-04-19 03:47 | 1.68335 | -77.20776 | 12522 ft | 285 kts | 210° |
| 2026-04-19 03:47 | 1.66592 | -77.21711 | 12262 ft | 284 kts | 211° |
| 2026-04-19 03:48 | 1.64854 | -77.22646 | 12002 ft | 282 kts | 211° |
| 2026-04-19 03:48 | 1.63128 | -77.23572 | 11762 ft | 280 kts | 210° |
| 2026-04-19 03:48 | 1.61438 | -77.24478 | 11521 ft | 278 kts | 210° |
| 2026-04-19 03:48 | 1.59737 | -77.25387 | 11267 ft | 276 kts | 210° |
| 2026-04-19 03:49 | 1.58022 | -77.26303 | 10960 ft | 276 kts | 210° |
| 2026-04-19 03:49 | 1.56343 | -77.27198 | 10624 ft | 277 kts | 209° |
| 2026-04-19 03:49 | 1.54647 | -77.28105 | 10360 ft | 274 kts | 210° |
| 2026-04-19 03:49 | 1.52973 | -77.29003 | 10104 ft | 272 kts | 210° |
| 2026-04-19 03:50 | 1.51313 | -77.29870 | 9844 ft | 268 kts | 209° |
| 2026-04-19 03:50 | 1.49656 | -77.30705 | 9594 ft | 264 kts | 208° |
| 2026-04-19 03:50 | 1.48023 | -77.31517 | 9385 ft | 260 kts | 207° |
| 2026-04-19 03:50 | 1.46422 | -77.32314 | 9156 ft | 255 kts | 207° |
| 2026-04-19 03:51 | 1.44871 | -77.33086 | 8918 ft | 242 kts | 207° |
| 2026-04-19 03:51 | 1.43425 | -77.33806 | 8805 ft | 224 kts | 207° |
| 2026-04-19 03:51 | 1.42060 | -77.34485 | 8815 ft | 216 kts | 208° |
| 2026-04-19 03:51 | 1.40738 | -77.35144 | 8830 ft | 206 kts | 207° |
| 2026-04-19 03:52 | 1.39508 | -77.35758 | 8841 ft | 190 kts | 207° |
| 2026-04-19 03:52 | 1.38355 | -77.36314 | 8818 ft | 181 kts | 201° |
| 2026-04-19 03:52 | 1.37113 | -77.36540 | 8549 ft | 183 kts | 179° |
| 2026-04-19 03:52 | 1.35901 | -77.36282 | 8286 ft | 173 kts | 158° |
| 2026-04-19 03:53 | 1.34923 | -77.35650 | 8042 ft | 164 kts | 137° |
| 2026-04-19 03:53 | 1.34243 | -77.34767 | 7814 ft | 158 kts | 117° |
| 2026-04-19 03:53 | 1.33894 | -77.33742 | 7578 ft | 155 kts | 98° |
| 2026-04-19 03:53 | 1.33892 | -77.32676 | 7351 ft | 153 kts | 79° |
| 2026-04-19 03:54 | 1.34223 | -77.31677 | 7146 ft | 152 kts | 62° |
| 2026-04-19 03:54 | 1.34846 | -77.30831 | 6918 ft | 151 kts | 44° |
| 2026-04-19 03:54 | 1.35700 | -77.30222 | 6626 ft | 153 kts | 24° |
| 2026-04-19 03:54 | 1.36720 | -77.29872 | 6355 ft | 150 kts | 16° |
| 2026-04-19 03:55 | 1.37756 | -77.29600 | 6232 ft | 155 kts | 14° |
| 2026-04-19 03:55 | 1.38798 | -77.29325 | 5971 ft | 154 kts | 15° |
| 2026-04-19 03:55 | 1.39732 | -77.29075 | 5901 ft | 106 kts | 15° |
| 2026-04-19 03:55 | 1.40154 | -77.28963 | 5879 ft | 29 kts | 14° |
| 2026-04-19 03:56 | 1.40353 | -77.28911 | 5867 ft | 30 kts | 15° |
| 2026-04-19 03:56 | 1.40549 | -77.28859 | 5859 ft | 25 kts | 13° |
| 2026-04-19 03:56 | 1.40613 | -77.28858 | 5852 ft | 4 kts | 22° |
| 2026-04-19 03:56 | 1.40618 | -77.28847 | 5851 ft | 0 kts | 78° |
| 2026-04-19 03:57 | 1.40610 | -77.28837 | 5852 ft | 3 kts | 153° |
| 2026-04-19 03:57 | 1.40601 | -77.28838 | 5852 ft | 0 kts | 187° |
| 2026-04-19 03:57 | 1.40565 | -77.28853 | 5869 ft | 15 kts | 201° |
| 2026-04-19 03:57 | 1.40455 | -77.28884 | 5865 ft | 20 kts | 195° |
| 2026-04-19 03:58 | 1.40292 | -77.28926 | 5871 ft | 28 kts | 193° |
| 2026-04-19 03:58 | 1.40093 | -77.28978 | 5881 ft | 31 kts | 195° |
| 2026-04-19 03:58 | 1.39880 | -77.29037 | 5891 ft | 30 kts | 195° |
| 2026-04-19 03:58 | 1.39715 | -77.29081 | 5904 ft | 9 kts | 196° |
| 2026-04-19 03:59 | 1.39678 | -77.29073 | 5904 ft | 4 kts | 129° |
| 2026-04-19 03:59 | 1.39665 | -77.29024 | 5906 ft | 6 kts | 111° |
| 2026-04-19 03:59 | 1.39651 | -77.29015 | 5907 ft | 1 kts | 163° |
| 2026-04-19 03:59 | 1.39619 | -77.29011 | 5907 ft | 2 kts | 135° |
| 2026-04-19 04:00 | 1.39614 | -77.28991 | 5908 ft | 3 kts | 103° |
| 2026-04-19 04:00 | 1.39610 | -77.28974 | 5907 ft | 0 kts | 104° |